createdAt,value
2023-05-19T00:00:02.058Z,997.3477
2023-05-19T00:01:01.332Z,997.2833
2023-05-19T00:02:03.516Z,997.3477
2023-05-19T00:03:02.370Z,997.5054
2023-05-19T00:04:01.690Z,997.4406
2023-05-19T00:05:03.809Z,997.3191
2023-05-19T00:06:01.668Z,997.3548
2023-05-19T00:07:03.692Z,997.3333
2023-05-19T00:08:01.498Z,997.3548
2023-05-19T00:09:03.572Z,997.3619
2023-05-19T00:10:02.988Z,997.3833
2023-05-19T00:11:03.424Z,997.2043
2023-05-19T00:12:02.204Z,997.2975
2023-05-19T00:13:03.272Z,997.4193
2023-05-19T00:14:02.099Z,997.2258
2023-05-19T00:15:01.533Z,997.3693
2023-05-19T00:16:02.066Z,997.3477
2023-05-19T00:17:01.443Z,997.2762
2023-05-19T00:18:03.564Z,997.2762
2023-05-19T00:19:03.041Z,997.262
2023-05-19T00:20:03.444Z,997.3193
2023-05-19T00:21:03.878Z,997.2333
2023-05-19T00:22:03.308Z,997.1974
2023-05-19T00:23:02.105Z,997.2119
2023-05-19T00:24:03.241Z,997.0257
2023-05-19T00:25:03.656Z,997.2479
2023-05-19T00:26:03.101Z,997.1332
2023-05-19T00:27:01.924Z,997.2409
2023-05-19T00:28:01.344Z,997.0903
2023-05-19T00:29:01.763Z,997.1262
2023-05-19T00:30:01.257Z,997.1764
2023-05-19T00:31:01.681Z,997.0617
2023-05-19T00:32:02.227Z,997.0259
2023-05-19T00:33:01.614Z,997.0475
2023-05-19T00:34:03.716Z,997.0691
2023-05-19T00:35:01.476Z,997.1264
2023-05-19T00:36:01.997Z,997.0547
2023-05-19T00:37:01.462Z,997.1048
2023-05-19T00:38:01.890Z,996.9975
2023-05-19T00:39:02.925Z,996.976
2023-05-19T00:40:01.815Z,997.148
2023-05-19T00:41:02.903Z,997.0836
2023-05-19T00:42:03.347Z,997.1122
2023-05-19T00:43:03.803Z,997.0406
2023-05-19T00:44:03.253Z,996.9692
2023-05-19T00:45:03.664Z,997.1482
2023-05-19T00:46:03.112Z,997.1843
2023-05-19T00:47:02.114Z,997.1844
2023-05-19T00:48:01.437Z,997.3063
2023-05-19T00:49:01.868Z,997.3063
2023-05-19T00:50:02.924Z,997.3063
2023-05-19T00:51:03.427Z,997.0413
2023-05-19T00:52:03.811Z,996.9553
2023-05-19T00:53:01.617Z,997.3063
2023-05-19T00:54:03.707Z,997.2348
2023-05-19T00:55:01.501Z,997.2348
2023-05-19T00:56:02.023Z,997.1991
2023-05-19T00:57:03.053Z,997.1991
2023-05-19T00:58:01.857Z,997.2348
2023-05-19T00:59:01.306Z,997.1633
2023-05-19T01:00:01.770Z,997.1633
2023-05-19T01:01:02.347Z,997.1633
2023-05-19T01:02:01.661Z,997.1633
2023-05-19T01:03:03.808Z,997.0918
2023-05-19T01:04:03.264Z,997.1205
2023-05-19T01:05:01.953Z,997.1205
2023-05-19T01:06:03.050Z,996.9345
2023-05-19T01:07:01.860Z,997.2211
2023-05-19T01:08:02.892Z,997.0063
2023-05-19T01:09:03.375Z,996.9776
2023-05-19T01:10:02.122Z,997.0421
2023-05-19T01:11:01.586Z,997.1496
2023-05-19T01:12:03.654Z,996.949
2023-05-19T01:13:01.460Z,997.0923
2023-05-19T01:14:01.874Z,996.9348
2023-05-19T01:15:01.364Z,997.0352
2023-05-19T01:16:03.472Z,996.9994
2023-05-19T01:17:02.214Z,996.9994
2023-05-19T01:18:03.325Z,996.9421
2023-05-19T01:19:02.269Z,996.9994
2023-05-19T01:20:03.175Z,996.9421
2023-05-19T01:21:01.990Z,996.8848
2023-05-19T01:22:03.049Z,996.9708
2023-05-19T01:23:01.822Z,996.8633
2023-05-19T01:24:01.306Z,996.9635
2023-05-19T01:25:01.729Z,996.8848
2023-05-19T01:26:03.847Z,996.9994
2023-05-19T01:27:03.273Z,997.2071
2023-05-19T01:28:03.700Z,997.1714
2023-05-19T01:29:01.523Z,996.9853
2023-05-19T01:30:03.595Z,996.9495
2023-05-19T01:31:02.983Z,996.8423
2023-05-19T01:32:01.861Z,997.1574
2023-05-19T01:34:01.739Z,996.9784
2023-05-19T01:35:03.798Z,997.0573
2023-05-19T01:36:01.704Z,997.0502
2023-05-19T01:37:03.713Z,997.1361
2023-05-19T01:38:01.471Z,997.1648
2023-05-19T01:39:01.914Z,996.9929
2023-05-19T01:40:03.026Z,997.0502
2023-05-19T01:41:01.829Z,996.9929
2023-05-19T01:42:01.278Z,997.036
2023-05-19T01:43:01.699Z,997.1721
2023-05-19T01:44:03.792Z,997.0506
2023-05-19T01:45:01.598Z,997.0506
2023-05-19T01:46:03.718Z,997.0862
2023-05-19T01:47:03.148Z,997.0289
2023-05-19T01:48:03.592Z,997.1075
2023-05-19T01:49:01.339Z,997.0862
2023-05-19T01:50:03.447Z,997.2007
2023-05-19T01:51:03.997Z,997.0506
2023-05-19T01:52:01.676Z,997.1148
2023-05-19T01:53:02.139Z,997.0862
2023-05-19T01:54:03.188Z,997.0289
2023-05-19T01:55:03.614Z,997.036
2023-05-19T01:56:03.034Z,996.9289
2023-05-19T01:57:03.480Z,997.0077
2023-05-19T01:59:03.370Z,996.9148
2023-05-19T02:00:02.190Z,997.0293
2023-05-19T02:01:03.280Z,997.0007
2023-05-19T02:02:03.675Z,996.9005
2023-05-19T02:03:03.224Z,996.9005
2023-05-19T02:04:01.953Z,997.0437
2023-05-19T02:05:01.380Z,996.9507
2023-05-19T02:06:01.832Z,996.8793
2023-05-19T02:07:01.279Z,996.8793
2023-05-19T02:08:03.366Z,996.9939
2023-05-19T02:09:03.801Z,997.0511
2023-05-19T02:10:03.250Z,996.8508
2023-05-19T02:11:03.671Z,996.9438
2023-05-19T02:12:01.475Z,996.9584
2023-05-19T02:13:03.568Z,996.9584
2023-05-19T02:14:01.397Z,997.0728
2023-05-19T02:15:03.510Z,996.994
2023-05-19T02:17:01.736Z,996.9869
2023-05-19T02:18:02.210Z,996.9799
2023-05-19T02:19:01.739Z,997.123
2023-05-19T02:20:03.705Z,996.9799
2023-05-19T02:21:01.482Z,996.9512
2023-05-19T02:22:01.957Z,996.8871
2023-05-19T02:23:01.379Z,996.8657
2023-05-19T02:24:01.894Z,996.8012
2023-05-19T02:25:01.281Z,996.8657
2023-05-19T02:26:03.369Z,996.9158
2023-05-19T02:27:02.161Z,996.8945
2023-05-19T02:28:01.612Z,996.9946
2023-05-19T02:29:02.101Z,996.8659
2023-05-19T02:30:03.151Z,996.7801
2023-05-19T02:31:03.591Z,996.8945
2023-05-19T02:32:01.532Z,996.8231
2023-05-19T02:33:02.078Z,996.8446
2023-05-19T02:34:03.095Z,996.68
2023-05-19T02:35:01.885Z,996.9592
2023-05-19T02:36:01.334Z,996.7662
2023-05-19T02:37:03.397Z,996.709
2023-05-19T02:38:03.869Z,996.709
2023-05-19T02:39:01.624Z,996.8234
2023-05-19T02:40:02.112Z,996.8376
2023-05-19T02:41:03.173Z,996.8878
2023-05-19T02:42:03.649Z,996.7948
2023-05-19T02:43:03.058Z,996.7659
2023-05-19T02:44:01.835Z,996.7373
2023-05-19T02:45:01.269Z,996.7945
2023-05-19T02:46:01.775Z,996.7945
2023-05-19T02:47:03.849Z,996.6514
2023-05-19T02:48:01.612Z,996.7373
2023-05-19T02:49:03.753Z,996.7588
2023-05-19T02:50:03.123Z,996.7376
2023-05-19T02:51:01.942Z,996.709
2023-05-19T02:52:03.025Z,996.6877
2023-05-19T02:53:01.837Z,996.7449
2023-05-19T02:54:01.291Z,996.7736
2023-05-19T02:55:01.712Z,996.7523
2023-05-19T02:56:03.817Z,996.7597
2023-05-19T02:57:01.580Z,996.8243
2023-05-19T02:58:02.073Z,996.7529
2023-05-19T02:59:01.489Z,996.8815
2023-05-19T03:00:03.676Z,996.8243
2023-05-19T03:01:03.024Z,996.7529
2023-05-19T03:02:01.968Z,996.7886
2023-05-19T03:03:01.305Z,996.7529
2023-05-19T03:04:03.546Z,996.7816
2023-05-19T03:05:03.847Z,996.7816
2023-05-19T03:06:01.646Z,996.7388
2023-05-19T03:07:03.780Z,996.932
2023-05-19T03:08:02.092Z,996.825
2023-05-19T03:09:01.514Z,996.8824
2023-05-19T03:10:01.942Z,996.8824
2023-05-19T03:11:01.412Z,996.9682
2023-05-19T03:12:01.862Z,996.7898
2023-05-19T03:13:03.002Z,996.7327
2023-05-19T03:14:01.797Z,996.6757
2023-05-19T03:15:03.880Z,996.8691
2023-05-19T03:16:01.755Z,996.7837
2023-05-19T03:17:03.831Z,996.7052
2023-05-19T03:18:03.256Z,996.7413
2023-05-19T03:19:02.082Z,996.82
2023-05-19T03:20:03.139Z,996.8986
2023-05-19T03:21:01.968Z,996.6273
2023-05-19T03:22:03.030Z,996.6559
2023-05-19T03:23:01.818Z,996.7203
2023-05-19T03:24:02.868Z,996.7777
2023-05-19T03:25:01.722Z,996.6921
2023-05-19T03:26:03.850Z,996.8137
2023-05-19T03:27:03.257Z,997.0067
2023-05-19T03:28:02.014Z,996.6997
2023-05-19T03:29:03.164Z,996.8998
2023-05-19T03:30:06.317Z,996.7857
2023-05-19T03:31:01.376Z,996.7931
2023-05-19T03:32:01.940Z,996.7575
2023-05-19T03:33:03.060Z,996.7931
2023-05-19T03:34:01.743Z,996.6362
2023-05-19T03:35:03.831Z,996.7003
2023-05-19T03:36:01.594Z,996.8576
2023-05-19T03:37:02.083Z,996.6794
2023-05-19T03:38:01.532Z,996.6794
2023-05-19T03:39:02.000Z,996.6367
2023-05-19T03:40:01.431Z,996.8225
2023-05-19T03:41:03.539Z,996.8225
2023-05-19T03:42:01.344Z,996.7654
2023-05-19T03:43:01.788Z,996.7869
2023-05-19T03:44:02.245Z,996.7869
2023-05-19T03:45:01.670Z,996.7799
2023-05-19T03:46:02.310Z,996.6586
2023-05-19T03:47:03.243Z,996.7087
2023-05-19T03:48:03.697Z,996.8515
2023-05-19T03:49:03.112Z,996.8588
2023-05-19T03:50:03.547Z,996.7732
2023-05-19T03:51:01.357Z,996.7446
2023-05-19T03:52:01.784Z,996.916
2023-05-19T03:53:03.898Z,996.7519
2023-05-19T03:54:01.694Z,996.8306
2023-05-19T03:55:02.140Z,996.795
2023-05-19T03:56:01.635Z,996.8806
2023-05-19T03:57:02.055Z,996.8947
2023-05-19T03:58:03.128Z,996.8303
2023-05-19T03:59:03.565Z,996.7732
2023-05-19T04:00:01.354Z,996.6734
2023-05-19T04:01:01.824Z,996.8303
2023-05-19T04:03:03.519Z,996.8661
2023-05-19T04:04:02.181Z,996.752
2023-05-19T04:05:03.239Z,996.9233
2023-05-19T04:06:02.072Z,996.8661
2023-05-19T04:07:01.485Z,996.9159
2023-05-19T04:08:03.524Z,996.7802
2023-05-19T04:09:02.986Z,996.8229
2023-05-19T04:10:01.789Z,996.8444
2023-05-19T04:11:03.858Z,996.8515
2023-05-19T04:12:03.349Z,996.8585
2023-05-19T04:13:02.145Z,996.7443
2023-05-19T04:14:01.547Z,996.8229
2023-05-19T04:15:03.680Z,996.88
2023-05-19T04:16:01.475Z,996.9372
2023-05-19T04:17:03.586Z,996.844
2023-05-19T04:18:01.474Z,997.0295
2023-05-19T04:19:03.496Z,996.8366
2023-05-19T04:20:02.813Z,996.8438
2023-05-19T04:21:01.692Z,997.029
2023-05-19T04:22:02.159Z,996.7861
2023-05-19T04:23:01.714Z,996.8929
2023-05-19T04:24:03.656Z,996.9213
2023-05-19T04:25:01.511Z,997.0924
2023-05-19T04:26:02.037Z,996.8423
2023-05-19T04:27:01.376Z,996.8562
2023-05-19T04:28:03.488Z,996.8557
2023-05-19T04:29:03.850Z,996.9054
2023-05-19T04:30:03.318Z,996.7477
2023-05-19T04:31:02.218Z,996.8045
2023-05-19T04:32:01.567Z,996.9399
2023-05-19T04:33:03.743Z,996.9824
2023-05-19T04:34:01.454Z,996.832
2023-05-19T04:35:01.889Z,996.9105
2023-05-19T04:36:03.001Z,996.896
2023-05-19T04:37:01.789Z,996.7816
2023-05-19T04:38:03.858Z,996.9814
2023-05-19T04:39:01.673Z,996.8453
2023-05-19T04:40:03.771Z,996.709
2023-05-19T04:41:01.517Z,996.9019
2023-05-19T04:42:03.641Z,996.8299
2023-05-19T04:43:01.436Z,996.8653
2023-05-19T04:44:01.905Z,996.8293
2023-05-19T04:45:01.293Z,996.8293
2023-05-19T04:46:03.410Z,996.8433
2023-05-19T04:47:04.014Z,996.8289
2023-05-19T04:48:01.661Z,996.8289
2023-05-19T04:49:02.091Z,996.8716
2023-05-19T04:50:03.178Z,996.7997
2023-05-19T04:51:01.972Z,996.9643
2023-05-19T04:52:03.179Z,996.7924
2023-05-19T04:53:01.887Z,996.9929
2023-05-19T04:54:01.272Z,996.8709
2023-05-19T04:55:03.367Z,996.8424
2023-05-19T04:56:03.830Z,996.8783
2023-05-19T04:57:01.600Z,996.9929
2023-05-19T04:58:02.056Z,996.8352
2023-05-19T04:59:01.472Z,996.8423
2023-05-19T05:00:03.786Z,996.9209
2023-05-19T05:01:01.368Z,996.8922
2023-05-19T05:02:03.521Z,996.9495
2023-05-19T05:03:03.941Z,996.8709
2023-05-19T05:04:01.699Z,997.1214
2023-05-19T05:05:02.110Z,997.1356
2023-05-19T05:06:01.578Z,996.9782
2023-05-19T05:07:03.667Z,996.9637
2023-05-19T05:08:03.089Z,996.7561
2023-05-19T05:09:03.532Z,997.0567
2023-05-19T05:10:02.920Z,996.8636
2023-05-19T05:11:01.786Z,997.0567
2023-05-19T05:12:02.205Z,997.0061
2023-05-19T05:13:03.317Z,997.0918
2023-05-19T05:14:02.096Z,997.0918
2023-05-19T05:15:01.567Z,997.0918
2023-05-19T05:16:02.064Z,996.8912
2023-05-19T05:17:01.463Z,997.0055
2023-05-19T05:18:02.101Z,996.8977
2023-05-19T05:19:03.054Z,996.869
2023-05-19T05:20:01.788Z,997.0049
2023-05-19T05:21:03.869Z,996.976
2023-05-19T05:22:03.298Z,997.0259
2023-05-19T05:23:02.063Z,996.911
2023-05-19T05:24:03.154Z,997.0257
2023-05-19T05:25:01.942Z,996.9036
2023-05-19T05:26:01.402Z,996.9752
2023-05-19T05:27:03.506Z,997.0393
2023-05-19T05:28:01.286Z,997.0677
2023-05-19T05:29:01.720Z,997.0103
2023-05-19T05:30:03.823Z,997.1464
2023-05-19T05:31:03.239Z,996.9957
2023-05-19T05:32:03.742Z,996.9882
2023-05-19T05:33:03.148Z,997.0814
2023-05-19T05:34:03.523Z,997.0598
2023-05-19T05:35:02.950Z,997.0094
2023-05-19T05:36:03.397Z,997.124
2023-05-19T05:37:02.180Z,997.0808
2023-05-19T05:38:01.604Z,997.0808
2023-05-19T05:39:02.049Z,997.1596
2023-05-19T05:40:03.127Z,996.9513
2023-05-19T05:41:01.952Z,996.8506
2023-05-19T05:42:01.419Z,997.0587
2023-05-19T05:43:03.459Z,996.9007
2023-05-19T05:44:01.278Z,996.9363
2023-05-19T05:45:01.717Z,997.058
2023-05-19T05:46:03.896Z,997.0073
2023-05-19T05:47:01.618Z,996.9638
2023-05-19T05:48:03.700Z,997.1503
2023-05-19T05:49:03.115Z,996.9134
2023-05-19T05:50:01.952Z,997.0782
2023-05-19T05:51:03.020Z,997.035
2023-05-19T05:52:06.278Z,996.9701
2023-05-19T05:54:01.752Z,997.0913
2023-05-19T05:55:02.208Z,996.9402
2023-05-19T05:56:03.270Z,996.8751
2023-05-19T05:57:02.079Z,996.9756
2023-05-19T05:58:01.523Z,997.0906
2023-05-19T05:59:03.653Z,996.8531
2023-05-19T06:00:03.062Z,996.9031
2023-05-19T06:01:01.893Z,996.8744
2023-05-19T06:02:03.014Z,996.8816
2023-05-19T06:03:03.476Z,996.7882
2023-05-19T06:04:03.868Z,996.7665
2023-05-19T06:05:03.315Z,996.9245
2023-05-19T06:06:02.144Z,997.0321
2023-05-19T06:07:03.111Z,996.9601
2023-05-19T06:08:03.570Z,996.8952
2023-05-19T06:09:01.383Z,996.9957
2023-05-19T06:10:03.500Z,997.1391
2023-05-19T06:11:03.882Z,997.024
2023-05-19T06:12:03.356Z,996.9662
2023-05-19T06:13:02.126Z,996.9157
2023-05-19T06:14:01.564Z,997.1459
2023-05-19T06:15:01.996Z,996.822
2023-05-19T06:16:02.298Z,997.0518
2023-05-19T06:17:01.912Z,996.9439
2023-05-19T06:18:03.010Z,996.9727
2023-05-19T06:19:01.829Z,997.0157
2023-05-19T06:21:01.706Z,996.8065
2023-05-19T06:22:03.836Z,996.8852
2023-05-19T06:23:03.253Z,996.9999
2023-05-19T06:24:03.701Z,997.0357
2023-05-19T06:25:01.471Z,996.942
2023-05-19T06:26:01.963Z,996.9271
2023-05-19T06:27:03.017Z,996.9055
2023-05-19T06:28:01.838Z,997.0056
2023-05-19T06:29:01.281Z,996.9246
2023-05-19T06:30:03.383Z,996.9808
2023-05-19T06:31:03.867Z,997.0379
2023-05-19T06:32:03.245Z,996.9514
2023-05-19T06:33:02.049Z,996.8434
2023-05-19T06:34:01.465Z,996.9379
2023-05-19T06:35:01.981Z,996.8439
2023-05-19T06:36:03.034Z,996.8502
2023-05-19T06:37:03.523Z,996.8855
2023-05-19T06:38:01.283Z,996.8271
2023-05-19T06:39:03.364Z,996.9708
2023-05-19T06:40:02.188Z,996.7911
2023-05-19T06:41:01.613Z,996.8559
2023-05-19T06:42:03.793Z,996.7476
2023-05-19T06:43:01.528Z,996.7982
2023-05-19T06:44:01.968Z,996.8413
2023-05-19T06:45:01.459Z,996.8053
2023-05-19T06:46:01.913Z,996.9208
2023-05-19T06:47:01.344Z,996.8063
2023-05-19T06:48:01.898Z,996.886
2023-05-19T06:50:03.312Z,996.7345
2023-05-19T06:51:02.162Z,996.8711
2023-05-19T06:52:01.646Z,996.9289
2023-05-19T06:53:02.091Z,996.8855
2023-05-19T06:54:03.177Z,996.9218
2023-05-19T06:55:01.955Z,996.8855
2023-05-19T06:56:03.028Z,997.0943
2023-05-19T06:57:01.843Z,996.8267
2023-05-19T06:58:01.311Z,996.9488
2023-05-19T06:59:03.377Z,996.9847
2023-05-19T07:00:03.834Z,997.0854
2023-05-19T07:01:01.635Z,996.9406
2023-05-19T07:02:02.097Z,996.8533
2023-05-19T07:03:03.289Z,997.0047
2023-05-19T07:04:03.752Z,996.8381
2023-05-19T07:05:01.440Z,997.0112
2023-05-19T07:06:01.875Z,996.8095
2023-05-19T07:07:01.343Z,996.8816
2023-05-19T07:08:01.763Z,996.8741
2023-05-19T07:09:02.243Z,996.8593
2023-05-19T07:10:01.683Z,996.7794
2023-05-19T07:11:02.145Z,996.902
2023-05-19T07:12:01.577Z,996.8295
2023-05-19T07:13:03.639Z,996.6988
2023-05-19T07:14:03.069Z,996.8643
2023-05-19T07:15:03.469Z,996.7418
2023-05-19T07:16:02.928Z,996.8784
2023-05-19T07:17:03.348Z,996.8566
2023-05-19T07:18:03.787Z,996.9139
2023-05-19T07:19:03.235Z,996.704
2023-05-19T07:20:01.981Z,996.8844
2023-05-19T07:21:03.088Z,996.7683
2023-05-19T07:22:01.893Z,996.7966
2023-05-19T07:23:01.320Z,996.7169
2023-05-19T07:24:03.385Z,996.6951
2023-05-19T07:25:02.248Z,996.6376
2023-05-19T07:26:03.349Z,996.8689
2023-05-19T07:27:03.797Z,996.7244
2023-05-19T07:28:03.231Z,996.6593
2023-05-19T07:29:03.685Z,996.8405
2023-05-19T07:30:01.475Z,996.8844
2023-05-19T07:31:01.891Z,996.718
2023-05-19T07:32:03.073Z,996.7029
2023-05-19T07:33:03.447Z,996.6808
2023-05-19T07:34:03.882Z,996.6512
2023-05-19T07:35:01.670Z,996.7161
2023-05-19T07:36:03.772Z,996.7301
2023-05-19T07:37:03.206Z,996.7223
2023-05-19T07:38:03.654Z,996.6501
2023-05-19T07:39:03.092Z,996.6429
2023-05-19T07:40:03.522Z,996.6067
2023-05-19T07:41:01.428Z,996.6501
2023-05-19T07:42:03.427Z,996.4905
2023-05-19T07:43:02.182Z,996.7437
2023-05-19T07:44:03.295Z,996.7073
2023-05-19T07:45:02.119Z,996.5478
2023-05-19T07:46:01.577Z,996.4745
2023-05-19T07:47:03.608Z,996.4883
2023-05-19T07:48:03.090Z,996.5459
2023-05-19T07:49:01.801Z,996.5753
2023-05-19T07:51:01.769Z,996.5463
2023-05-19T07:52:02.187Z,996.655
2023-05-19T07:53:01.631Z,996.8505
2023-05-19T07:54:02.064Z,996.5824
2023-05-19T07:55:03.132Z,996.5387
2023-05-19T07:56:03.590Z,996.539
2023-05-19T07:57:03.002Z,996.5749
2023-05-19T07:58:03.442Z,996.6902
2023-05-19T07:59:02.230Z,996.6391
2023-05-19T08:00:01.689Z,996.6251
2023-05-19T08:01:03.808Z,996.6322
2023-05-19T08:02:03.253Z,996.5016
2023-05-19T08:03:03.755Z,996.6029
2023-05-19T08:04:03.270Z,996.5517
2023-05-19T08:05:01.881Z,996.6091
2023-05-19T08:06:02.953Z,996.5651
2023-05-19T08:07:01.753Z,996.5433
2023-05-19T08:08:02.197Z,996.6372
2023-05-19T08:09:03.194Z,996.5136
2023-05-19T08:10:02.050Z,996.7893
2023-05-19T08:11:03.126Z,996.4856
2023-05-19T08:12:01.932Z,996.6089
2023-05-19T08:13:01.351Z,996.5938
2023-05-19T08:14:03.463Z,996.6232
2023-05-19T08:15:02.272Z,996.4591
2023-05-19T08:16:01.756Z,996.5861
2023-05-19T08:17:03.829Z,996.5867
2023-05-19T08:18:03.282Z,996.5938
2023-05-19T08:19:02.014Z,996.6301
2023-05-19T08:20:01.390Z,996.7893
2023-05-19T08:23:02.428Z,996.6218
2023-05-19T08:24:03.019Z,996.6431
2023-05-19T08:25:01.942Z,996.5913
2023-05-19T08:26:03.103Z,996.6707
2023-05-19T08:27:01.949Z,996.729
2023-05-19T08:28:03.100Z,996.6344
2023-05-19T08:29:02.008Z,996.5107
2023-05-19T08:30:03.218Z,996.5325
2023-05-19T08:31:02.127Z,996.6994
2023-05-19T08:32:03.287Z,996.5391
2023-05-19T08:33:03.811Z,996.5678
2023-05-19T08:34:03.353Z,996.59
2023-05-19T08:35:02.221Z,996.6481
2023-05-19T08:36:01.769Z,996.6112
2023-05-19T08:38:01.853Z,996.4952
2023-05-19T08:39:03.082Z,996.6327
2023-05-19T08:40:03.564Z,996.4793
2023-05-19T08:41:01.450Z,996.4533
2023-05-19T08:42:03.610Z,996.6175
2023-05-19T08:43:01.532Z,996.372
2023-05-19T08:44:02.110Z,996.4299
2023-05-19T08:45:01.641Z,996.4072
2023-05-19T08:46:02.183Z,996.4134
2023-05-19T08:47:03.558Z,996.3469
2023-05-19T08:48:02.248Z,996.3754
2023-05-19T08:49:01.754Z,996.3754
2023-05-19T08:51:03.483Z,996.2957
2023-05-19T08:52:01.331Z,996.3822
2023-05-19T08:53:03.551Z,996.316
2023-05-19T08:54:01.403Z,996.2646
2023-05-19T08:55:03.529Z,996.3007
2023-05-19T08:56:01.324Z,996.3085
2023-05-19T08:57:01.854Z,996.3811
2023-05-19T08:59:03.389Z,996.2488
2023-05-19T09:00:03.843Z,996.1542
2023-05-19T09:01:03.384Z,996.1675
2023-05-19T09:02:03.770Z,996.1884
2023-05-19T09:04:03.817Z,996.2673
2023-05-19T09:05:01.651Z,996.129
2023-05-19T09:06:03.619Z,996.2086
2023-05-19T09:07:01.417Z,996.1353
2023-05-19T09:08:02.054Z,996.1126
2023-05-19T09:09:03.032Z,995.988
2023-05-19T09:10:01.787Z,996.112
2023-05-19T09:11:03.921Z,996.3598
2023-05-19T09:12:03.389Z,996.0695
2023-05-19T09:13:03.846Z,996.1055
2023-05-19T09:14:03.246Z,996.0982
2023-05-19T09:15:02.048Z,995.9444
2023-05-19T09:16:03.149Z,996.0615
2023-05-19T09:17:02.034Z,996.0186
2023-05-19T09:18:01.481Z,996.1081
2023-05-19T09:19:03.662Z,996.0002
2023-05-19T09:20:03.030Z,995.9635
2023-05-19T09:21:01.833Z,996.0793
2023-05-19T09:23:03.401Z,995.9852
2023-05-19T09:24:03.870Z,996.0355
2023-05-19T09:25:03.410Z,995.8522
2023-05-19T09:26:02.230Z,995.946
2023-05-19T09:27:02.204Z,995.9311
2023-05-19T09:28:02.615Z,995.9384
2023-05-19T09:29:03.373Z,995.9815
2023-05-19T09:30:03.876Z,996.0615
2023-05-19T09:31:03.374Z,995.9888
2023-05-19T09:32:02.319Z,995.9815
2023-05-19T09:33:01.911Z,995.8053
2023-05-19T09:34:03.034Z,996.0595
2023-05-19T09:35:03.580Z,995.9421
2023-05-19T09:36:01.419Z,995.9129
2023-05-19T09:37:03.559Z,995.9634
2023-05-19T09:38:01.461Z,995.9267
2023-05-19T09:39:02.013Z,995.9478
2023-05-19T09:40:01.552Z,995.8092
2023-05-19T09:41:03.717Z,995.8969
2023-05-19T09:42:03.216Z,996.0871
2023-05-19T09:43:03.818Z,996.0221
2023-05-19T09:44:01.648Z,995.9214
2023-05-19T09:45:03.875Z,995.8553
2023-05-19T09:46:01.876Z,996.0303
2023-05-19T09:47:02.938Z,995.891
2023-05-19T09:48:01.810Z,995.9341
2023-05-19T09:49:01.365Z,995.9049
2023-05-19T09:50:01.875Z,996.0285
2023-05-19T09:51:01.419Z,996.0781
2023-05-19T09:52:03.655Z,995.9542
2023-05-19T09:53:03.081Z,995.9906
2023-05-19T09:54:03.629Z,995.909
2023-05-19T09:55:01.535Z,995.9371
2023-05-19T09:56:03.793Z,995.98
2023-05-19T09:57:03.257Z,995.8342
2023-05-19T09:58:03.810Z,995.87
2023-05-19T09:59:01.652Z,995.8407
2023-05-19T10:00:02.784Z,995.8855
2023-05-19T10:01:01.741Z,995.8414
2023-05-19T10:02:03.743Z,995.8699
2023-05-19T10:03:01.519Z,996.0674
2023-05-19T10:04:03.700Z,995.8334
2023-05-19T10:05:01.757Z,995.8919
2023-05-19T10:06:03.741Z,995.8854
2023-05-19T10:07:01.323Z,995.8566
2023-05-19T10:08:01.779Z,995.8855
2023-05-19T10:09:02.210Z,995.9816
2023-05-19T10:10:01.697Z,995.7478
2023-05-19T10:11:03.748Z,995.8429
2023-05-19T10:12:01.623Z,995.8206
2023-05-19T10:13:03.757Z,995.6379
2023-05-19T10:14:01.536Z,995.7181
2023-05-19T10:15:02.014Z,995.7325
2023-05-19T10:16:03.463Z,995.7043
2023-05-19T10:17:02.129Z,995.6905
2023-05-19T10:18:01.441Z,995.7274
2023-05-19T10:19:03.503Z,995.6476
2023-05-19T10:20:02.417Z,995.5321
2023-05-19T10:21:03.402Z,995.7269
2023-05-19T10:22:02.209Z,995.6832
2023-05-19T10:23:01.663Z,995.7043
2023-05-19T10:24:02.150Z,995.6244
2023-05-19T10:25:01.623Z,995.6982
2023-05-19T10:26:03.767Z,995.6685
2023-05-19T10:27:03.188Z,995.5379
2023-05-19T10:28:02.037Z,995.4875
2023-05-19T10:29:01.489Z,995.6601
2023-05-19T10:30:01.971Z,995.5374
2023-05-19T10:31:03.042Z,995.6748
2023-05-19T10:32:03.509Z,995.4002
2023-05-19T10:33:01.416Z,995.3711
2023-05-19T10:34:01.880Z,995.6105
2023-05-19T10:35:01.434Z,995.6982
2023-05-19T10:36:02.560Z,995.4731
2023-05-19T10:37:03.053Z,995.5316
2023-05-19T10:38:03.473Z,995.4731
2023-05-19T10:39:02.922Z,995.5089
2023-05-19T10:40:03.332Z,995.5519
2023-05-19T10:41:03.845Z,995.5518
2023-05-19T10:42:01.624Z,995.537
2023-05-19T10:43:02.118Z,995.4647
2023-05-19T10:44:01.554Z,995.4794
2023-05-19T10:45:03.698Z,995.6166
2023-05-19T10:46:01.458Z,995.4588
2023-05-19T10:47:03.610Z,995.4736
2023-05-19T10:48:01.455Z,995.3859
2023-05-19T10:49:03.469Z,995.4588
2023-05-19T10:50:02.981Z,995.371
2023-05-19T10:51:03.378Z,995.5756
2023-05-19T10:52:02.223Z,995.3859
2023-05-19T10:53:01.666Z,995.4588
2023-05-19T10:54:02.116Z,995.6104
2023-05-19T10:55:01.558Z,995.5688
2023-05-19T10:56:02.061Z,995.5252
2023-05-19T10:57:01.488Z,995.4011
2023-05-19T10:58:01.953Z,995.438
2023-05-19T10:59:03.022Z,995.4308
2023-05-19T11:00:03.482Z,995.6249
2023-05-19T11:01:02.925Z,995.429
2023-05-19T11:02:03.521Z,995.5022
2023-05-19T11:03:03.829Z,995.5162
2023-05-19T11:04:01.720Z,995.3701
2023-05-19T11:05:03.694Z,995.4231
2023-05-19T11:06:03.126Z,995.402
2023-05-19T11:07:01.944Z,995.5492
2023-05-19T11:08:01.361Z,995.4556
2023-05-19T11:09:01.872Z,995.5799
2023-05-19T11:10:01.301Z,995.6216
2023-05-19T11:11:01.794Z,995.368
2023-05-19T11:12:02.794Z,995.4331
2023-05-19T11:13:03.304Z,995.4177
2023-05-19T11:14:02.165Z,995.322
2023-05-19T11:15:01.651Z,995.402
2023-05-19T11:16:02.080Z,995.3647
2023-05-19T11:17:01.624Z,995.2847
2023-05-19T11:18:03.730Z,995.402
2023-05-19T11:19:03.108Z,995.4383
2023-05-19T11:20:01.925Z,995.3567
2023-05-19T11:21:01.473Z,995.3419
2023-05-19T11:22:01.861Z,995.3275
2023-05-19T11:23:01.319Z,995.241
2023-05-19T11:24:03.476Z,995.3355
2023-05-19T11:25:02.243Z,995.3275
2023-05-19T11:26:03.338Z,995.3859
2023-05-19T11:27:03.787Z,995.2248
2023-05-19T11:28:03.218Z,995.2895
2023-05-19T11:29:02.031Z,995.2456
2023-05-19T11:30:01.490Z,995.1809
2023-05-19T11:31:01.928Z,995.225
2023-05-19T11:32:01.427Z,995.2978
2023-05-19T11:33:01.917Z,995.1952
2023-05-19T11:34:01.272Z,995.2167
2023-05-19T11:35:03.406Z,995.1722
2023-05-19T11:36:03.858Z,995.0758
2023-05-19T11:37:03.276Z,995.1105
2023-05-19T11:38:02.077Z,995.1469
2023-05-19T11:39:01.542Z,995.0741
2023-05-19T11:40:03.676Z,995.0233
2023-05-19T11:41:01.458Z,995.0227
2023-05-19T11:42:01.935Z,995.1249
2023-05-19T11:43:03.026Z,995.0658
2023-05-19T11:44:01.858Z,995.2189
2023-05-19T11:45:02.975Z,995.1162
2023-05-19T11:46:03.442Z,995.1536
2023-05-19T11:47:02.798Z,994.9648
2023-05-19T11:48:03.622Z,995.0822
2023-05-19T11:49:03.686Z,994.9714
2023-05-19T11:50:03.150Z,995.1033
2023-05-19T11:51:01.947Z,995.0365
2023-05-19T11:52:01.429Z,994.9263
2023-05-19T11:53:02.036Z,994.991
2023-05-19T11:54:02.959Z,994.955
2023-05-19T11:55:01.796Z,994.978
2023-05-19T11:56:03.897Z,994.9786
2023-05-19T11:57:03.366Z,995.0381
2023-05-19T11:58:05.234Z,994.9211
2023-05-19T11:59:03.225Z,994.9869
2023-05-19T12:00:02.079Z,994.9355
2023-05-19T12:01:03.195Z,994.8548